createdAt,value
2023-05-23T00:01:51.028Z,100.00
2023-05-23T00:04:19.102Z,100.00
2023-05-23T00:06:47.079Z,100.00
2023-05-23T00:09:14.974Z,100.00
2023-05-23T00:11:45.705Z,100.00
2023-05-23T00:14:14.352Z,100.00
2023-05-23T00:16:44.312Z,100.00
2023-05-23T00:19:15.239Z,100.00
2023-05-23T00:21:44.009Z,100.00
2023-05-23T00:24:11.426Z,100.00
2023-05-23T00:26:39.020Z,100.00
2023-05-23T00:29:06.570Z,100.00
2023-05-23T00:31:34.115Z,100.00
2023-05-23T00:34:01.718Z,100.00
2023-05-23T00:36:29.212Z,100.00
2023-05-23T00:38:56.661Z,100.00
2023-05-23T00:41:26.101Z,100.00
2023-05-23T00:43:53.589Z,100.00
2023-05-23T00:46:23.345Z,100.00
2023-05-23T00:48:51.015Z,100.00
2023-05-23T00:51:18.599Z,100.00
2023-05-23T00:53:46.223Z,100.00
2023-05-23T00:56:13.922Z,100.00
2023-05-23T00:58:41.370Z,100.00
2023-05-23T01:01:08.820Z,100.00
2023-05-23T01:03:36.444Z,100.00
2023-05-23T01:06:07.475Z,100.00
2023-05-23T01:08:34.886Z,100.00
2023-05-23T01:11:04.697Z,100.00
2023-05-23T01:13:39.536Z,100.00
2023-05-23T01:16:15.313Z,100.00
2023-05-23T01:18:54.920Z,100.00
2023-05-23T01:21:22.498Z,100.00
2023-05-23T01:24:22.266Z,100.00
2023-05-23T01:26:56.279Z,100.00
2023-05-23T01:29:28.933Z,100.00
2023-05-23T01:31:58.450Z,100.00
2023-05-23T01:34:26.017Z,100.00
2023-05-23T01:36:56.786Z,100.00
2023-05-23T01:39:24.197Z,100.00
2023-05-23T01:41:52.147Z,100.00
2023-05-23T01:44:21.364Z,100.00
2023-05-23T01:46:49.059Z,100.00
2023-05-23T01:49:17.551Z,100.00
2023-05-23T01:51:45.182Z,100.00
2023-05-23T01:54:13.574Z,100.00
2023-05-23T01:56:41.082Z,100.00
2023-05-23T01:59:08.524Z,100.00
2023-05-23T02:01:36.094Z,100.00
2023-05-23T02:04:04.069Z,100.00
2023-05-23T02:06:32.024Z,100.00
2023-05-23T02:08:59.466Z,100.00
2023-05-23T02:11:27.171Z,100.00
2023-05-23T02:13:54.762Z,100.00
2023-05-23T02:16:23.432Z,100.00
2023-05-23T02:18:53.156Z,100.00
2023-05-23T02:21:20.741Z,100.00
2023-05-23T02:23:48.280Z,100.00
2023-05-23T02:26:18.436Z,100.00
2023-05-23T02:28:45.959Z,100.00
2023-05-23T02:31:17.479Z,100.00
2023-05-23T02:33:44.965Z,100.00
2023-05-23T02:36:12.385Z,100.00
2023-05-23T02:38:39.978Z,100.00
2023-05-23T02:41:07.588Z,100.00
2023-05-23T02:43:35.242Z,100.00
2023-05-23T02:46:03.156Z,100.00
2023-05-23T02:48:30.789Z,100.00
2023-05-23T02:50:58.394Z,100.00
2023-05-23T02:53:26.176Z,100.00
2023-05-23T02:55:53.828Z,100.00
2023-05-23T02:58:24.391Z,100.00
2023-05-23T03:00:52.129Z,100.00
2023-05-23T03:03:19.751Z,100.00
2023-05-23T03:05:47.206Z,100.00
2023-05-23T03:08:14.640Z,100.00
2023-05-23T03:10:42.088Z,100.00
2023-05-23T03:13:11.386Z,100.00
2023-05-23T03:15:38.956Z,100.00
2023-05-23T03:18:06.552Z,100.00
2023-05-23T03:20:34.233Z,100.00
2023-05-23T03:23:01.607Z,100.00
2023-05-23T03:25:29.116Z,100.00
2023-05-23T03:27:56.553Z,100.00
2023-05-23T03:30:24.021Z,100.00
2023-05-23T03:32:51.618Z,100.00
2023-05-23T03:35:19.053Z,100.00
2023-05-23T03:37:46.654Z,100.00
2023-05-23T03:40:14.102Z,100.00
2023-05-23T03:42:41.577Z,100.00
2023-05-23T03:45:09.843Z,100.00
2023-05-23T03:47:37.568Z,100.00
2023-05-23T03:50:06.257Z,100.00
2023-05-23T03:52:34.029Z,100.00
2023-05-23T03:55:01.625Z,100.00
2023-05-23T03:57:29.396Z,100.00
2023-05-23T03:59:57.246Z,100.00
2023-05-23T04:02:24.885Z,100.00
2023-05-23T04:04:54.241Z,100.00
2023-05-23T04:07:21.892Z,100.00
2023-05-23T04:09:49.253Z,100.00
2023-05-23T04:12:17.135Z,100.00
2023-05-23T04:14:44.784Z,100.00
2023-05-23T04:17:12.390Z,100.00
2023-05-23T04:19:39.949Z,100.00
2023-05-23T04:22:07.650Z,100.00
2023-05-23T04:24:35.224Z,100.00
2023-05-23T04:27:02.671Z,100.00
2023-05-23T04:29:31.879Z,100.00
2023-05-23T04:32:01.064Z,100.00
2023-05-23T04:34:29.203Z,100.00
2023-05-23T04:36:57.785Z,100.00
2023-05-23T04:39:26.318Z,100.00
2023-05-23T04:42:13.853Z,100.00
2023-05-23T04:45:03.838Z,100.00
2023-05-23T04:47:57.359Z,100.00
2023-05-23T04:50:38.453Z,100.00
2023-05-23T04:53:06.769Z,100.00
2023-05-23T04:55:34.743Z,100.00
2023-05-23T04:58:03.573Z,100.00
2023-05-23T05:00:31.051Z,100.00
2023-05-23T05:02:58.694Z,100.00
2023-05-23T05:05:29.256Z,100.00
2023-05-23T05:07:57.178Z,100.00
2023-05-23T05:10:27.859Z,100.00
2023-05-23T05:12:55.395Z,100.00
2023-05-23T05:15:23.948Z,100.00
2023-05-23T05:17:55.272Z,100.00
2023-05-23T05:20:23.302Z,100.00
2023-05-23T05:22:56.681Z,100.00
2023-05-23T05:25:24.624Z,100.00
2023-05-23T05:27:52.843Z,100.00
2023-05-23T05:30:21.660Z,100.00
2023-05-23T05:32:58.368Z,100.00
2023-05-23T05:35:26.069Z,100.00
2023-05-23T05:37:53.541Z,100.00
2023-05-23T05:40:21.078Z,100.00
2023-05-23T05:42:48.595Z,100.00
2023-05-23T05:45:16.189Z,100.00
2023-05-23T05:47:45.694Z,100.00
2023-05-23T05:50:13.169Z,100.00
2023-05-23T05:52:42.495Z,100.00
2023-05-23T05:55:13.940Z,100.00
2023-05-23T05:57:46.074Z,100.00
2023-05-23T06:00:19.296Z,100.00
2023-05-23T06:02:47.822Z,100.00
2023-05-23T06:05:18.947Z,100.00
2023-05-23T06:07:48.611Z,100.00
2023-05-23T06:10:16.253Z,100.00
2023-05-23T06:12:43.912Z,100.00
2023-05-23T06:15:11.682Z,100.00
2023-05-23T06:17:40.237Z,100.00
2023-05-23T06:20:08.435Z,100.00
2023-05-23T06:22:37.144Z,100.00
2023-05-23T06:25:06.322Z,100.00
2023-05-23T06:27:33.780Z,100.00
2023-05-23T06:30:01.314Z,100.00
2023-05-23T06:32:29.232Z,100.00
2023-05-23T06:34:56.873Z,100.00
2023-05-23T06:37:24.304Z,100.00
2023-05-23T06:39:51.876Z,99.57
2023-05-23T06:42:19.603Z,98.96
2023-05-23T06:44:56.951Z,99.45
2023-05-23T06:47:25.554Z,99.30
2023-05-23T06:49:53.177Z,95.74
2023-05-23T06:52:20.626Z,94.98
2023-05-23T06:54:48.277Z,93.63
2023-05-23T06:57:16.670Z,93.38
2023-05-23T06:59:47.452Z,92.53
2023-05-23T07:02:18.087Z,91.42
2023-05-23T07:04:46.461Z,91.82
2023-05-23T07:07:18.647Z,91.51
2023-05-23T07:09:46.799Z,92.66
2023-05-23T07:12:17.846Z,91.48
2023-05-23T07:14:45.737Z,92.61
2023-05-23T07:17:14.429Z,92.61
2023-05-23T07:19:42.478Z,94.44
2023-05-23T07:22:10.067Z,92.21
2023-05-23T07:24:38.402Z,91.67
2023-05-23T07:27:06.708Z,91.63
2023-05-23T07:29:34.991Z,91.48
2023-05-23T07:32:02.412Z,91.05
2023-05-23T07:34:30.972Z,92.04
2023-05-23T07:37:00.391Z,91.81
2023-05-23T07:39:31.879Z,89.32
2023-05-23T07:41:59.895Z,88.27
2023-05-23T07:44:28.673Z,86.63
2023-05-23T07:46:56.318Z,86.63
2023-05-23T07:49:24.457Z,84.23
2023-05-23T07:51:51.947Z,84.27
2023-05-23T07:54:19.432Z,82.65
2023-05-23T07:56:48.970Z,79.75
2023-05-23T07:59:16.920Z,78.93
2023-05-23T08:01:45.184Z,79.87
2023-05-23T08:04:18.688Z,78.13
2023-05-23T08:07:04.297Z,79.05
2023-05-23T08:09:53.118Z,79.48
2023-05-23T08:12:24.112Z,78.44
2023-05-23T08:14:56.689Z,75.99
2023-05-23T08:17:28.733Z,75.55
2023-05-23T08:19:56.498Z,74.21
2023-05-23T08:22:23.966Z,73.16
2023-05-23T08:24:51.453Z,70.93
2023-05-23T08:27:19.010Z,71.98
2023-05-23T08:29:49.107Z,69.67
2023-05-23T08:32:16.820Z,68.97
2023-05-23T08:34:44.559Z,68.61
2023-05-23T08:37:12.060Z,68.18
2023-05-23T08:39:39.842Z,69.23
2023-05-23T08:42:26.976Z,67.81
2023-05-23T08:44:55.124Z,66.07
2023-05-23T08:47:23.111Z,65.58
2023-05-23T08:49:55.346Z,65.18
2023-05-23T08:52:23.055Z,63.57
2023-05-23T08:54:51.687Z,63.69
2023-05-23T08:57:19.297Z,63.01
2023-05-23T08:59:51.045Z,62.06
2023-05-23T09:02:18.671Z,62.37
2023-05-23T09:04:46.864Z,61.61
2023-05-23T09:07:22.760Z,61.97
2023-05-23T09:09:54.058Z,61.22
2023-05-23T09:12:23.892Z,60.53
2023-05-23T09:14:51.976Z,60.46
2023-05-23T09:17:20.589Z,60.26
2023-05-23T09:19:49.010Z,58.54
2023-05-23T09:22:49.169Z,58.68
2023-05-23T09:25:17.142Z,58.67
2023-05-23T09:27:48.033Z,59.16
2023-05-23T09:30:16.318Z,57.30
2023-05-23T09:32:44.928Z,57.56
2023-05-23T09:35:14.308Z,58.84
2023-05-23T09:37:50.653Z,57.37
2023-05-23T09:40:18.225Z,56.60
2023-05-23T09:42:51.280Z,55.33
2023-05-23T09:45:18.842Z,54.96
2023-05-23T09:47:51.594Z,54.44
2023-05-23T09:50:19.872Z,54.46
2023-05-23T09:52:48.255Z,53.86
2023-05-23T09:55:19.083Z,53.38
2023-05-23T09:57:46.700Z,51.97
2023-05-23T10:00:14.656Z,52.09
2023-05-23T10:03:00.799Z,51.08
2023-05-23T10:05:30.919Z,50.13
2023-05-23T10:08:03.313Z,50.01
2023-05-23T10:10:36.138Z,49.00
2023-05-23T10:13:06.725Z,49.93
2023-05-23T10:15:39.490Z,49.98
2023-05-23T10:18:21.670Z,48.12
2023-05-23T10:20:49.614Z,47.88
2023-05-23T10:23:17.577Z,48.10
2023-05-23T10:25:45.002Z,47.30
2023-05-23T10:28:12.521Z,45.09
2023-05-23T10:30:40.167Z,44.22
2023-05-23T10:33:08.902Z,44.14
2023-05-23T10:36:00.501Z,43.74
2023-05-23T10:38:34.118Z,41.78
2023-05-23T10:41:06.910Z,41.69
2023-05-23T10:43:40.507Z,41.05
2023-05-23T10:46:14.911Z,41.74
2023-05-23T10:48:43.726Z,39.82
2023-05-23T10:51:12.794Z,39.41
2023-05-23T10:53:44.447Z,39.16
2023-05-23T10:56:22.134Z,38.33
2023-05-23T10:58:55.000Z,37.60
2023-05-23T11:01:26.006Z,37.21
2023-05-23T11:03:55.301Z,36.87
2023-05-23T11:06:29.808Z,37.45
2023-05-23T11:09:07.356Z,38.91
2023-05-23T11:12:05.939Z,38.90
2023-05-23T11:14:33.576Z,38.35
2023-05-23T11:17:01.666Z,38.27
2023-05-23T11:19:30.070Z,37.13
2023-05-23T11:22:02.340Z,36.25
2023-05-23T11:24:48.296Z,36.56
2023-05-23T11:27:15.928Z,37.37
2023-05-23T11:29:43.513Z,38.10
2023-05-23T11:32:17.158Z,39.24
2023-05-23T11:34:45.497Z,40.72
2023-05-23T11:37:13.123Z,41.41
2023-05-23T11:39:40.979Z,42.14
2023-05-23T11:42:08.451Z,42.66
2023-05-23T11:44:36.125Z,42.44
2023-05-23T11:47:04.782Z,41.75
2023-05-23T11:49:34.554Z,41.90
2023-05-23T11:52:02.450Z,41.99
2023-05-23T11:54:30.283Z,41.89
2023-05-23T11:56:57.871Z,42.20
2023-05-23T11:59:26.473Z,42.49
2023-05-23T12:01:54.266Z,42.98
2023-05-23T12:04:22.093Z,42.48
2023-05-23T12:06:50.732Z,42.22
2023-05-23T12:09:18.294Z,42.14
2023-05-23T12:11:48.768Z,42.16
2023-05-23T12:14:17.495Z,42.14
2023-05-23T12:16:48.523Z,41.27
2023-05-23T12:19:18.299Z,40.68
2023-05-23T12:21:49.604Z,40.25
2023-05-23T12:24:21.707Z,40.83
2023-05-23T12:26:53.776Z,41.71
2023-05-23T12:29:22.628Z,41.51
2023-05-23T12:31:51.733Z,41.32
2023-05-23T12:34:20.682Z,40.97
2023-05-23T12:36:51.915Z,40.60
2023-05-23T12:39:29.035Z,40.20
2023-05-23T12:42:07.051Z,40.40
2023-05-23T12:44:41.681Z,39.53
2023-05-23T12:47:10.636Z,38.72
2023-05-23T12:49:38.527Z,38.93
2023-05-23T12:52:06.379Z,39.59
2023-05-23T12:54:33.888Z,39.68
2023-05-23T12:57:01.412Z,39.57
2023-05-23T12:59:29.110Z,38.67
2023-05-23T13:02:01.180Z,38.31
2023-05-23T13:04:34.194Z,37.49
2023-05-23T13:07:03.228Z,36.91
2023-05-23T13:09:31.193Z,36.19
2023-05-23T13:11:59.046Z,36.62
2023-05-23T13:14:26.880Z,37.10
2023-05-23T13:16:55.466Z,37.09
2023-05-23T13:19:23.054Z,37.50
2023-05-23T13:21:53.736Z,37.22
2023-05-23T13:24:21.323Z,36.26
2023-05-23T13:26:48.836Z,35.56
2023-05-23T13:29:16.358Z,35.03
2023-05-23T13:31:43.986Z,34.20
2023-05-23T13:34:11.758Z,33.89
2023-05-23T13:36:39.345Z,34.84
2023-05-23T13:39:07.529Z,35.92
2023-05-23T13:41:34.988Z,34.71
2023-05-23T13:44:02.472Z,34.50
2023-05-23T13:46:30.011Z,33.49
2023-05-23T13:48:58.553Z,33.34
2023-05-23T13:51:26.031Z,34.05
2023-05-23T13:53:53.523Z,33.94
2023-05-23T13:56:21.529Z,33.59
2023-05-23T13:58:48.985Z,33.71
2023-05-23T14:01:17.604Z,34.08
2023-05-23T14:03:45.008Z,34.03
2023-05-23T14:06:12.406Z,33.33
2023-05-23T14:08:39.858Z,33.57
2023-05-23T14:11:08.150Z,33.86
2023-05-23T14:13:35.674Z,34.35
2023-05-23T14:16:03.190Z,33.80
2023-05-23T14:18:30.645Z,33.76
2023-05-23T14:20:58.187Z,33.85
2023-05-23T14:23:25.599Z,33.88
2023-05-23T14:25:53.012Z,33.49
2023-05-23T14:28:20.609Z,32.97
2023-05-23T14:30:48.117Z,32.21
2023-05-23T14:33:16.113Z,31.46
2023-05-23T14:35:46.729Z,31.44
2023-05-23T14:38:14.186Z,31.71
2023-05-23T14:40:43.873Z,32.12
2023-05-23T14:43:12.297Z,31.91
2023-05-23T14:45:40.019Z,32.16
2023-05-23T14:48:07.799Z,31.99
2023-05-23T14:50:36.185Z,32.28
2023-05-23T14:53:03.798Z,32.63
2023-05-23T14:55:31.240Z,33.11
2023-05-23T14:57:58.686Z,33.97
2023-05-23T15:00:26.159Z,34.14
2023-05-23T15:02:53.754Z,34.55
2023-05-23T15:05:21.548Z,35.15
2023-05-23T15:07:48.959Z,35.57
2023-05-23T15:10:16.420Z,36.33
2023-05-23T15:12:44.125Z,37.08
2023-05-23T15:15:11.995Z,37.56
2023-05-23T15:17:39.683Z,38.30
2023-05-23T15:20:08.481Z,38.76
2023-05-23T15:22:39.711Z,39.12
2023-05-23T15:25:08.343Z,39.18
2023-05-23T15:27:36.251Z,39.64
2023-05-23T15:30:04.336Z,39.73
2023-05-23T15:32:31.786Z,38.73
2023-05-23T15:34:59.252Z,37.95
2023-05-23T15:37:26.743Z,37.67
2023-05-23T15:39:54.143Z,37.17
2023-05-23T15:42:21.640Z,36.85
2023-05-23T15:44:49.120Z,36.79
2023-05-23T15:47:16.696Z,36.44
2023-05-23T15:49:44.111Z,36.09
2023-05-23T15:52:11.559Z,35.85
2023-05-23T15:54:39.098Z,35.93
2023-05-23T15:57:06.504Z,35.83
2023-05-23T15:59:34.262Z,35.52
2023-05-23T16:02:05.472Z,35.63
2023-05-23T16:04:33.133Z,35.76
2023-05-23T16:07:00.611Z,35.55
2023-05-23T16:09:28.047Z,35.63
2023-05-23T16:11:57.111Z,35.90
2023-05-23T16:14:25.028Z,36.01
2023-05-23T16:16:52.593Z,36.39
2023-05-23T16:19:20.160Z,36.75
2023-05-23T16:21:47.744Z,36.73
2023-05-23T16:24:17.135Z,37.34
2023-05-23T16:26:44.690Z,37.70
2023-05-23T16:29:12.533Z,38.47
2023-05-23T16:31:40.042Z,39.49
2023-05-23T16:34:08.569Z,39.98
2023-05-23T16:36:37.281Z,40.65
2023-05-23T16:39:04.733Z,40.62
2023-05-23T16:41:32.203Z,40.61
2023-05-23T16:43:59.707Z,40.96
2023-05-23T16:46:27.324Z,40.68
2023-05-23T16:48:55.980Z,40.34
2023-05-23T16:51:23.445Z,40.57
2023-05-23T16:53:50.964Z,40.31
2023-05-23T16:56:18.999Z,40.62
2023-05-23T16:58:46.832Z,41.30
2023-05-23T17:01:16.624Z,41.32
2023-05-23T17:03:44.225Z,41.59
2023-05-23T17:06:11.885Z,41.95
2023-05-23T17:08:39.332Z,42.74
2023-05-23T17:11:06.849Z,42.85
2023-05-23T17:13:34.869Z,43.49
2023-05-23T17:16:02.537Z,44.10
2023-05-23T17:18:30.277Z,44.78
2023-05-23T17:20:58.210Z,44.64
2023-05-23T17:23:26.026Z,45.11
2023-05-23T17:25:54.335Z,44.92
2023-05-23T17:28:22.677Z,45.57
2023-05-23T17:30:51.912Z,46.20
2023-05-23T17:33:19.724Z,47.05
2023-05-23T17:35:47.170Z,48.14
2023-05-23T17:38:14.722Z,49.17
2023-05-23T17:40:42.500Z,50.46
2023-05-23T17:43:10.266Z,51.66
2023-05-23T17:45:37.770Z,52.87
2023-05-23T17:48:05.348Z,54.14
2023-05-23T17:50:32.785Z,55.58
2023-05-23T17:53:04.327Z,56.96
2023-05-23T17:55:32.056Z,58.99
2023-05-23T17:57:59.496Z,61.80
2023-05-23T18:00:27.001Z,64.42
2023-05-23T18:02:54.528Z,67.30
2023-05-23T18:05:23.807Z,68.53
2023-05-23T18:07:51.284Z,69.38
2023-05-23T18:10:18.915Z,69.54
2023-05-23T18:12:46.604Z,70.42
2023-05-23T18:15:14.102Z,71.29
2023-05-23T18:17:41.832Z,70.99
2023-05-23T18:20:09.871Z,71.40
2023-05-23T18:22:37.718Z,71.79
2023-05-23T18:25:06.900Z,73.07
2023-05-23T18:27:34.499Z,74.59
2023-05-23T18:30:02.047Z,75.04
2023-05-23T18:32:30.379Z,75.55
2023-05-23T18:34:57.883Z,76.21
2023-05-23T18:37:25.499Z,77.26
2023-05-23T18:39:53.261Z,78.69
2023-05-23T18:42:20.738Z,80.10
2023-05-23T18:44:51.985Z,81.97
2023-05-23T18:47:19.507Z,83.63
2023-05-23T18:49:47.128Z,85.10
2023-05-23T18:52:14.655Z,87.09
2023-05-23T18:54:42.599Z,88.07
2023-05-23T18:57:10.505Z,88.97
2023-05-23T18:59:41.340Z,89.96
2023-05-23T19:02:08.900Z,92.78
2023-05-23T19:04:36.806Z,99.71
2023-05-23T19:07:04.509Z,100.00
2023-05-23T19:09:32.290Z,100.00
2023-05-23T19:12:06.238Z,100.00
2023-05-23T19:14:33.705Z,100.00
2023-05-23T19:17:01.192Z,100.00
2023-05-23T19:19:30.935Z,100.00
2023-05-23T19:21:59.298Z,100.00
2023-05-23T19:24:30.917Z,100.00
2023-05-23T19:26:58.338Z,100.00
2023-05-23T19:29:27.198Z,100.00
2023-05-23T19:31:55.428Z,100.00
2023-05-23T19:34:22.827Z,100.00
2023-05-23T19:36:50.526Z,100.00
2023-05-23T19:39:17.972Z,100.00
2023-05-23T19:41:45.534Z,100.00
2023-05-23T19:44:14.035Z,100.00
2023-05-23T19:46:42.337Z,100.00
2023-05-23T19:49:09.934Z,100.00
2023-05-23T19:51:37.932Z,100.00
2023-05-23T19:54:05.785Z,100.00
2023-05-23T19:56:36.019Z,100.00
2023-05-23T19:59:03.409Z,100.00
2023-05-23T20:01:32.798Z,100.00
2023-05-23T20:04:00.599Z,100.00
2023-05-23T20:06:28.217Z,100.00
2023-05-23T20:08:55.724Z,100.00
2023-05-23T20:11:29.943Z,100.00
2023-05-23T20:13:57.755Z,100.00
2023-05-23T20:16:25.346Z,100.00
2023-05-23T20:18:52.890Z,100.00
2023-05-23T20:21:20.488Z,100.00
2023-05-23T20:23:49.757Z,100.00
2023-05-23T20:26:22.852Z,100.00
2023-05-23T20:28:50.571Z,100.00
2023-05-23T20:31:18.976Z,100.00
2023-05-23T20:33:46.533Z,100.00
2023-05-23T20:36:19.754Z,100.00
2023-05-23T20:38:48.076Z,100.00
2023-05-23T20:41:15.653Z,100.00
2023-05-23T20:43:44.788Z,100.00
2023-05-23T20:46:13.837Z,100.00
2023-05-23T20:48:41.867Z,100.00
2023-05-23T20:51:09.840Z,100.00
2023-05-23T20:53:40.622Z,100.00
2023-05-23T20:56:10.485Z,100.00
2023-05-23T20:58:38.291Z,100.00
2023-05-23T21:01:05.774Z,100.00
2023-05-23T21:03:33.466Z,100.00
2023-05-23T21:06:04.516Z,100.00
2023-05-23T21:08:34.554Z,100.00
2023-05-23T21:11:02.499Z,100.00
2023-05-23T21:13:29.950Z,100.00
2023-05-23T21:15:57.531Z,100.00
2023-05-23T21:18:24.945Z,100.00
2023-05-23T21:20:52.563Z,100.00
2023-05-23T21:23:19.990Z,100.00
2023-05-23T21:25:47.516Z,100.00
2023-05-23T21:28:14.961Z,100.00
2023-05-23T21:30:43.110Z,100.00
2023-05-23T21:33:11.387Z,100.00
2023-05-23T21:35:38.968Z,100.00
2023-05-23T21:38:06.420Z,100.00
2023-05-23T21:40:33.861Z,100.00
2023-05-23T21:43:02.134Z,100.00
2023-05-23T21:45:29.640Z,100.00
2023-05-23T21:47:57.237Z,100.00
2023-05-23T21:50:24.703Z,100.00
2023-05-23T21:52:52.134Z,100.00
2023-05-23T21:55:19.637Z,100.00
2023-05-23T21:57:49.147Z,100.00
2023-05-23T22:00:19.110Z,100.00
2023-05-23T22:02:47.436Z,100.00
2023-05-23T22:05:15.463Z,100.00
2023-05-23T22:07:42.964Z,100.00
2023-05-23T22:10:11.173Z,100.00
2023-05-23T22:12:38.991Z,100.00
2023-05-23T22:15:08.443Z,100.00
2023-05-23T22:17:36.048Z,100.00
2023-05-23T22:20:05.478Z,100.00
2023-05-23T22:22:33.039Z,100.00
2023-05-23T22:25:00.442Z,100.00
2023-05-23T22:27:27.854Z,100.00
2023-05-23T22:29:55.279Z,100.00
2023-05-23T22:32:22.782Z,100.00
2023-05-23T22:34:50.550Z,100.00
2023-05-23T22:37:18.077Z,100.00
2023-05-23T22:39:45.642Z,100.00
2023-05-23T22:42:13.149Z,100.00
2023-05-23T22:45:06.369Z,100.00
2023-05-23T22:47:34.564Z,100.00
2023-05-23T22:50:02.389Z,100.00
2023-05-23T22:52:31.458Z,100.00
2023-05-23T22:54:58.918Z,100.00
2023-05-23T22:57:26.469Z,100.00
2023-05-23T22:59:53.937Z,100.00
2023-05-23T23:02:21.450Z,100.00
2023-05-23T23:04:48.982Z,100.00
2023-05-23T23:07:17.048Z,100.00
2023-05-23T23:09:44.490Z,100.00
2023-05-23T23:12:11.897Z,100.00
2023-05-23T23:14:39.349Z,100.00
2023-05-23T23:17:06.853Z,100.00
2023-05-23T23:19:35.399Z,100.00
2023-05-23T23:22:02.827Z,100.00
2023-05-23T23:24:30.986Z,100.00
2023-05-23T23:26:58.448Z,100.00
2023-05-23T23:29:26.004Z,100.00
2023-05-23T23:31:55.871Z,100.00
2023-05-23T23:34:23.325Z,100.00
2023-05-23T23:36:50.782Z,100.00
2023-05-23T23:39:19.028Z,100.00
2023-05-23T23:41:46.577Z,100.00
2023-05-23T23:44:14.767Z,100.00
2023-05-23T23:46:42.264Z,100.00
2023-05-23T23:49:09.775Z,100.00
2023-05-23T23:51:37.161Z,100.00
2023-05-23T23:54:04.689Z,100.00
2023-05-23T23:56:32.263Z,100.00
2023-05-23T23:58:59.678Z,100.00
